createdAt,value
2023-05-23T00:04:32.810Z,7.32
2023-05-23T00:09:34.321Z,6.50
2023-05-23T00:14:35.780Z,6.00
2023-05-23T00:19:37.295Z,7.25
2023-05-23T00:24:38.744Z,6.72
2023-05-23T00:29:40.108Z,7.55
2023-05-23T00:34:41.596Z,6.75
2023-05-23T00:39:42.950Z,7.15
2023-05-23T00:44:44.440Z,6.88
2023-05-23T00:49:45.847Z,7.25
2023-05-23T00:54:47.273Z,7.32
2023-05-23T00:59:48.740Z,7.55
2023-05-23T01:04:54.540Z,6.75
2023-05-23T01:09:55.964Z,7.03
2023-05-23T01:15:11.770Z,6.63
2023-05-23T01:20:17.212Z,7.82
2023-05-23T01:25:40.046Z,6.90
2023-05-23T01:30:41.842Z,6.93
2023-05-23T01:35:43.937Z,6.05
2023-05-23T01:40:45.423Z,7.15
2023-05-23T01:45:47.788Z,6.78
2023-05-23T01:50:49.519Z,7.03
2023-05-23T01:55:51.553Z,6.88
2023-05-23T02:00:53.085Z,6.80
2023-05-23T02:05:54.549Z,7.65
2023-05-23T02:10:56.120Z,7.25
2023-05-23T02:15:57.573Z,7.63
2023-05-23T02:20:59.192Z,6.80
2023-05-23T02:26:00.662Z,8.35
2023-05-23T02:31:02.500Z,8.30
2023-05-23T02:36:04.007Z,7.38
2023-05-23T02:41:05.485Z,6.80
2023-05-23T02:46:06.962Z,7.78
2023-05-23T02:51:08.362Z,6.35
2023-05-23T02:56:09.884Z,7.28
2023-05-23T03:01:12.017Z,6.65
2023-05-23T03:06:14.590Z,6.90
2023-05-23T03:11:16.351Z,7.63
2023-05-23T03:16:17.793Z,7.20
2023-05-23T03:21:19.236Z,7.55
2023-05-23T03:26:21.890Z,7.47
2023-05-23T03:31:23.416Z,7.32
2023-05-23T03:36:28.322Z,8.13
2023-05-23T03:41:29.672Z,8.43
2023-05-23T03:46:31.624Z,8.05
2023-05-23T03:51:33.959Z,7.90
2023-05-23T03:56:35.600Z,8.52
2023-05-23T04:01:37.016Z,8.48
2023-05-23T04:06:38.480Z,9.95
2023-05-23T04:11:39.866Z,9.00
2023-05-23T04:16:41.747Z,9.20
2023-05-23T04:21:43.296Z,9.20
2023-05-23T04:26:44.698Z,9.20
2023-05-23T04:31:46.392Z,9.02
2023-05-23T04:36:48.187Z,8.25
2023-05-23T04:41:50.068Z,8.18
2023-05-23T04:46:51.510Z,9.00
2023-05-23T04:51:53.031Z,9.02
2023-05-23T04:56:54.469Z,8.07
2023-05-23T05:01:55.932Z,9.23
2023-05-23T05:06:57.364Z,7.60
2023-05-23T05:11:59.719Z,8.18
2023-05-23T05:17:02.655Z,8.18
2023-05-23T05:22:04.527Z,8.35
2023-05-23T05:27:06.193Z,10.05
2023-05-23T05:32:09.274Z,8.98
2023-05-23T05:37:14.070Z,8.20
2023-05-23T05:42:15.424Z,7.70
2023-05-23T05:47:17.032Z,8.23
2023-05-23T05:52:18.512Z,7.38
2023-05-23T05:57:19.928Z,7.35
2023-05-23T06:02:21.426Z,7.88
2023-05-23T06:07:23.990Z,8.40
2023-05-23T06:12:25.486Z,8.85
2023-05-23T06:17:28.204Z,8.43
2023-05-23T06:22:29.694Z,8.70
2023-05-23T06:27:31.081Z,9.00
2023-05-23T06:32:32.599Z,8.70
2023-05-23T06:37:34.676Z,8.90
2023-05-23T06:42:36.443Z,9.93
2023-05-23T06:47:40.048Z,8.38
2023-05-23T06:52:42.918Z,7.77
2023-05-23T06:57:44.791Z,6.03
2023-05-23T07:02:48.579Z,4.80
2023-05-23T07:07:50.259Z,5.60
2023-05-23T07:12:51.691Z,15.68
2023-05-23T07:17:53.655Z,24.27
2023-05-23T07:22:55.220Z,9.55
2023-05-23T07:27:56.619Z,9.93
2023-05-23T07:32:58.121Z,14.25
2023-05-23T07:37:59.602Z,8.50
2023-05-23T07:43:00.978Z,10.70
2023-05-23T07:48:02.506Z,7.65
2023-05-23T07:53:04.148Z,6.28
2023-05-23T07:58:05.630Z,5.75
2023-05-23T08:03:07.261Z,7.53
2023-05-23T08:08:08.758Z,7.53
2023-05-23T08:13:10.519Z,6.07
2023-05-23T08:18:12.527Z,4.18
2023-05-23T08:23:14.227Z,4.00
2023-05-23T08:28:15.910Z,4.13
2023-05-23T08:33:17.357Z,3.28
2023-05-23T08:38:21.871Z,3.40
2023-05-23T08:43:23.337Z,3.10
2023-05-23T08:48:27.039Z,2.53
2023-05-23T08:53:29.111Z,2.55
2023-05-23T08:58:32.090Z,18.75
2023-05-23T09:03:33.851Z,4.85
2023-05-23T09:08:35.802Z,5.25
2023-05-23T09:13:37.482Z,3.65
2023-05-23T09:18:39.074Z,3.17
2023-05-23T09:23:41.081Z,5.03
2023-05-23T09:28:43.149Z,5.10
2023-05-23T09:33:48.330Z,3.45
2023-05-23T09:38:49.825Z,3.78
2023-05-23T09:43:55.023Z,3.30
2023-05-23T09:48:56.751Z,2.20
2023-05-23T09:53:58.135Z,2.45
2023-05-23T09:59:01.633Z,10.85
2023-05-23T10:04:03.598Z,6.10
2023-05-23T10:09:05.839Z,3.58
2023-05-23T10:14:09.108Z,3.47
2023-05-23T10:19:32.345Z,3.53
2023-05-23T10:24:34.413Z,2.45
2023-05-23T10:29:36.517Z,3.05
2023-05-23T10:34:54.458Z,2.53
2023-05-23T10:39:55.909Z,3.40
2023-05-23T10:45:16.470Z,3.30
2023-05-23T10:50:31.394Z,2.80
2023-05-23T10:55:33.813Z,3.47
2023-05-23T11:00:35.235Z,3.45
2023-05-23T11:05:43.342Z,3.83
2023-05-23T11:11:00.871Z,3.60
2023-05-23T11:16:22.297Z,3.20
2023-05-23T11:21:23.855Z,4.20
2023-05-23T11:26:34.474Z,3.25
2023-05-23T11:31:40.493Z,3.40
2023-05-23T11:36:42.251Z,4.43
2023-05-23T11:41:43.937Z,3.58
2023-05-23T11:46:58.964Z,3.38
2023-05-23T11:52:01.660Z,3.17
2023-05-23T11:57:03.652Z,3.65
2023-05-23T12:02:06.694Z,6.63
2023-05-23T12:07:08.208Z,3.40
2023-05-23T12:12:09.817Z,4.93
2023-05-23T12:17:13.105Z,4.90
2023-05-23T12:22:14.663Z,4.13
2023-05-23T12:27:18.628Z,3.92
2023-05-23T12:32:20.362Z,4.50
2023-05-23T12:37:22.082Z,3.60
2023-05-23T12:42:23.551Z,3.47
2023-05-23T12:47:25.092Z,3.47
2023-05-23T12:52:26.830Z,3.50
2023-05-23T12:57:28.266Z,4.25
2023-05-23T13:02:29.779Z,3.50
2023-05-23T13:07:31.500Z,3.38
2023-05-23T13:12:34.174Z,3.50
2023-05-23T13:17:35.748Z,2.88
2023-05-23T13:22:37.154Z,3.92
2023-05-23T13:27:38.629Z,3.22
2023-05-23T13:32:40.182Z,3.25
2023-05-23T13:37:41.796Z,3.53
2023-05-23T13:42:43.240Z,3.28
2023-05-23T13:47:44.994Z,3.25
2023-05-23T13:52:48.969Z,3.10
2023-05-23T13:57:50.837Z,3.53
2023-05-23T14:02:52.305Z,3.75
2023-05-23T14:07:54.749Z,2.92
2023-05-23T14:12:56.143Z,3.85
2023-05-23T14:17:57.635Z,3.70
2023-05-23T14:22:59.075Z,3.03
2023-05-23T14:28:00.643Z,3.33
2023-05-23T14:33:02.081Z,3.28
2023-05-23T14:38:06.063Z,2.95
2023-05-23T14:48:09.660Z,3.70
2023-05-23T14:53:11.334Z,3.22
2023-05-23T14:58:12.794Z,2.83
2023-05-23T15:03:17.807Z,2.80
2023-05-23T15:08:19.489Z,2.83
2023-05-23T15:13:21.223Z,3.05
2023-05-23T15:18:38.945Z,2.15
2023-05-23T15:23:41.836Z,3.22
2023-05-23T15:28:43.488Z,3.55
2023-05-23T15:33:44.921Z,3.13
2023-05-23T15:38:46.466Z,3.47
2023-05-23T15:43:47.853Z,3.17
2023-05-23T15:48:49.303Z,3.90
2023-05-23T15:58:55.340Z,2.92
2023-05-23T16:03:56.766Z,2.88
2023-05-23T16:08:58.508Z,3.42
2023-05-23T16:13:59.940Z,2.50
2023-05-23T16:19:01.461Z,2.90
2023-05-23T16:24:02.917Z,4.00
2023-05-23T16:29:04.389Z,4.00
2023-05-23T16:34:05.956Z,3.75
2023-05-23T16:39:07.398Z,3.45
2023-05-23T16:44:08.862Z,4.13
2023-05-23T16:49:10.996Z,3.60
2023-05-23T16:54:12.502Z,2.83
2023-05-23T16:59:13.956Z,4.43
2023-05-23T17:04:16.646Z,3.83
2023-05-23T17:09:21.208Z,3.43
2023-05-23T17:14:22.827Z,3.03
2023-05-23T17:19:25.285Z,3.50
2023-05-23T17:24:26.891Z,9.75
2023-05-23T17:29:28.324Z,4.20
2023-05-23T17:34:29.767Z,3.15
2023-05-23T17:39:31.220Z,3.25
2023-05-23T17:44:32.660Z,3.30
2023-05-23T17:49:34.054Z,4.10
2023-05-23T17:54:36.698Z,3.78
2023-05-23T17:59:38.133Z,4.05
2023-05-23T18:04:41.252Z,3.10
2023-05-23T18:09:42.690Z,3.50
2023-05-23T18:14:44.498Z,4.22
2023-05-23T18:19:49.539Z,3.42
2023-05-23T18:24:51.100Z,3.30
2023-05-23T18:29:55.430Z,3.88
2023-05-23T18:34:56.869Z,3.78
2023-05-23T18:39:59.304Z,3.75
2023-05-23T18:45:00.705Z,4.25
2023-05-23T18:50:02.317Z,4.75
2023-05-23T18:55:03.935Z,5.05
2023-05-23T19:00:05.796Z,4.47
2023-05-23T19:05:07.393Z,4.43
2023-05-23T19:10:08.985Z,5.15
2023-05-23T19:15:11.687Z,4.35
2023-05-23T19:20:13.696Z,4.38
2023-05-23T19:25:15.182Z,4.68
2023-05-23T19:30:16.764Z,4.35
2023-05-23T19:35:18.321Z,5.70
2023-05-23T19:40:21.848Z,5.65
2023-05-23T19:45:23.319Z,6.38
2023-05-23T19:50:24.778Z,5.47
2023-05-23T19:55:26.473Z,4.50
2023-05-23T20:00:28.389Z,4.45
2023-05-23T20:05:29.875Z,4.95
2023-05-23T20:10:31.290Z,6.90
2023-05-23T20:15:40.127Z,5.25
2023-05-23T20:20:42.242Z,5.00
2023-05-23T20:25:43.785Z,6.57
2023-05-23T20:30:45.960Z,5.05
2023-05-23T20:35:50.150Z,5.30
2023-05-23T20:40:52.782Z,4.90
2023-05-23T20:45:54.967Z,5.57
2023-05-23T20:50:57.222Z,5.75
2023-05-23T20:55:58.650Z,5.13
2023-05-23T21:01:00.205Z,5.43
2023-05-23T21:06:01.633Z,5.07
2023-05-23T21:11:03.113Z,5.10
2023-05-23T21:16:05.899Z,6.68
2023-05-23T21:21:07.282Z,6.47
2023-05-23T21:26:08.812Z,6.47
2023-05-23T21:31:10.409Z,6.03
2023-05-23T21:36:11.877Z,5.85
2023-05-23T21:41:13.289Z,6.85
2023-05-23T21:46:14.772Z,6.80
2023-05-23T21:51:17.076Z,6.82
2023-05-23T21:56:18.762Z,6.38
2023-05-23T22:01:20.246Z,6.30
2023-05-23T22:06:21.686Z,6.60
2023-05-23T22:11:23.115Z,6.07
2023-05-23T22:16:25.910Z,6.60
2023-05-23T22:21:27.602Z,7.35
2023-05-23T22:26:29.036Z,8.07
2023-05-23T22:31:30.487Z,7.15
2023-05-23T22:36:33.407Z,7.28
2023-05-23T22:41:35.887Z,6.65
2023-05-23T22:46:39.531Z,7.05
2023-05-23T22:51:42.107Z,7.83
2023-05-23T22:56:43.563Z,7.93
2023-05-23T23:01:45.084Z,6.82
2023-05-23T23:06:46.471Z,7.40
2023-05-23T23:11:47.838Z,8.52
2023-05-23T23:16:49.873Z,8.18
2023-05-23T23:21:51.744Z,6.22
2023-05-23T23:26:53.090Z,7.82
2023-05-23T23:31:57.362Z,8.88
2023-05-23T23:36:58.784Z,8.00
2023-05-23T23:42:00.141Z,8.05
2023-05-23T23:47:01.507Z,7.68
2023-05-23T23:52:04.220Z,7.10
2023-05-23T23:57:06.684Z,8.20
